SBOSBO ILY / EGPI
Speedbird OnlineSpeedbird Online ILY / EGPI

Islay Airport
21:28 5.5°C

Location Islay, United Kingdom
Latitude: 55.68190002441406
Longitude: -6.256669998168945
Local Time 21:28 on 23 Feb 2024
UTC 0 hours (Europe/London)
METAR EGPI 231820Z 22009KT 9999 FEW020CB 06/03 Q0981
TAF
Weather As Of 23 Feb 2024 21:28
Description Light rain
Wind 20 km/h from South (203°)
Cloud Cover 29%
Precipitation Rain: none, Snow: none
Sunrise 07:32
Sunset 17:44
NOTAM 2 active NOTAM
Rotations During the last 90 days there were
11 flights from GLA
Web Wikipedia
Codes IATA: ILY
ICAO: EGPI
Altitude 17 Meter / 56 Feet
Distance 626 KM / 389 Miles
from London.
Runways
RunwayLength (m)Surface
08635Asphalt
131545Asphalt
26635Asphalt
311545Asphalt
Radio
TypeDescriptionFrequency
AFISIslay Information123.155
Live ATC



Support Speedbird Online

© 2017-2024 Speedbird Online